Time;durP1;ratioP1;P1;durP2;ratioP2;P2;SDS_P1;SDS_P2;PMS_P1;PMS_P2;Temp;Humidity;BMP_temperature;BMP_pressure;BME280_temperature;BME280_humidity;BME280_pressure;Samples;Min_cycle;Max_cycle;Signal;HPM_P1;HPM_P2
2023/09/25 00:00:50;;;;;;;6.18;2.30;;;11.50;99.90;;;;;;5062534;28;20025;-72
2023/09/25 00:03:16;;;;;;;13.67;2.97;;;11.50;99.90;;;;;;5049333;28;20718;-73
2023/09/25 00:05:41;;;;;;;4.33;2.33;;;11.40;99.90;;;;;;5047239;28;20065;-73
2023/09/25 00:08:08;;;;;;;13.87;2.97;;;11.40;99.90;;;;;;5048235;28;20116;-72
2023/09/25 00:10:34;;;;;;;5.20;2.42;;;11.40;99.90;;;;;;5048478;28;20032;-72
2023/09/25 00:13:00;;;;;;;3.42;2.03;;;11.30;99.90;;;;;;5048778;28;20135;-73
2023/09/25 00:15:26;;;;;;;10.95;2.72;;;11.30;99.90;;;;;;5049388;28;20026;-73
2023/09/25 00:17:53;;;;;;;3.53;2.20;;;11.20;99.90;;;;;;5048928;28;20379;-73
2023/09/25 00:20:24;;;;;;;10.00;2.70;;;11.20;99.90;;;;;;5047592;28;20376;-73
2023/09/25 00:22:51;;;;;;;5.25;2.30;;;11.20;99.90;;;;;;5049260;28;20108;-72
2023/09/25 00:25:19;;;;;;;13.75;2.70;;;11.20;99.90;;;;;;5048892;28;20074;-73
2023/09/25 00:27:45;;;;;;;5.07;1.83;;;11.10;99.90;;;;;;5047783;28;20032;-72
2023/09/25 00:30:11;;;;;;;7.97;2.73;;;11.20;99.90;;;;;;5049137;28;20036;-71
2023/09/25 00:32:37;;;;;;;5.60;2.20;;;11.20;99.90;;;;;;5048195;28;20028;-73
2023/09/25 00:35:05;;;;;;;14.63;2.53;;;11.20;99.90;;;;;;5049514;28;20600;-72
2023/09/25 00:37:31;;;;;;;2.85;1.92;;;11.10;99.90;;;;;;5049401;28;20341;-73
2023/09/25 00:39:58;;;;;;;6.18;2.13;;;11.10;99.90;;;;;;5049462;28;20017;-73
2023/09/25 00:42:26;;;;;;;11.07;2.42;;;11.00;99.90;;;;;;5049524;28;20031;-73
2023/09/25 00:44:52;;;;;;;12.10;2.25;;;11.10;99.90;;;;;;5049619;28;20017;-73
2023/09/25 00:47:18;;;;;;;5.20;2.85;;;11.10;99.90;;;;;;5049183;28;20100;-73
2023/09/25 00:49:44;;;;;;;8.02;2.30;;;11.00;99.90;;;;;;5049993;28;20079;-72
2023/09/25 00:52:09;;;;;;;12.43;2.90;;;11.00;99.90;;;;;;5049210;28;20438;-73
2023/09/25 00:54:36;;;;;;;5.93;2.10;;;10.90;99.90;;;;;;5052779;28;20033;-73
2023/09/25 00:57:01;;;;;;;;;;;10.90;99.90;;;;;;5053060;28;20514;-73
2023/09/25 00:59:27;;;;;;;7.20;2.38;;;10.90;99.90;;;;;;5051314;28;19912;-73
2023/09/25 01:01:53;;;;;;;5.30;2.27;;;11.00;99.90;;;;;;5052263;28;20029;-72
2023/09/25 01:04:20;;;;;;;8.40;2.22;;;10.80;99.90;;;;;;5050466;28;20028;-73
2023/09/25 01:06:46;;;;;;;4.25;2.35;;;10.80;99.90;;;;;;5051064;28;20060;-73
2023/09/25 01:09:14;;;;;;;10.73;2.90;;;10.80;99.90;;;;;;5052607;28;20025;-73
2023/09/25 01:11:40;;;;;;;5.40;2.42;;;10.80;99.90;;;;;;5052477;28;20509;-72
2023/09/25 01:14:06;;;;;;;7.72;2.95;;;10.70;99.90;;;;;;5050929;28;20490;-73
2023/09/25 01:16:32;;;;;;;8.73;2.67;;;10.80;99.90;;;;;;5052626;28;20039;-73
2023/09/25 01:18:57;;;;;;;5.72;2.72;;;10.90;99.90;;;;;;5052755;28;20029;-72
2023/09/25 01:21:25;;;;;;;9.05;2.33;;;10.90;99.90;;;;;;5052610;28;20116;-72
2023/09/25 01:23:51;;;;;;;4.63;2.05;;;11.00;99.90;;;;;;5052780;28;20020;-72
2023/09/25 01:26:17;;;;;;;3.90;2.38;;;10.90;99.90;;;;;;5053736;28;20104;-72
2023/09/25 01:28:43;;;;;;;6.97;2.70;;;10.90;99.90;;;;;;5052982;28;20041;-73
2023/09/25 01:31:08;;;;;;;6.70;2.67;;;10.70;99.90;;;;;;5051038;28;20037;-73
2023/09/25 01:33:34;;;;;;;5.07;2.87;;;10.70;99.90;;;;;;5050571;28;20048;-73
2023/09/25 01:36:00;;;;;;;6.65;2.50;;;10.60;99.90;;;;;;5050876;28;20112;-73
2023/09/25 01:38:26;;;;;;;11.90;2.53;;;10.70;99.90;;;;;;5050604;28;20112;-73
2023/09/25 01:40:52;;;;;;;12.23;2.50;;;10.70;99.90;;;;;;5051911;28;20032;-73
2023/09/25 01:43:18;;;;;;;5.13;2.43;;;10.80;99.90;;;;;;5051947;28;20025;-72
2023/09/25 01:45:43;;;;;;;5.40;2.20;;;10.80;99.90;;;;;;5066820;28;20029;-73
2023/09/25 01:48:09;;;;;;;5.07;2.50;;;10.80;99.90;;;;;;5050465;28;20112;-73
2023/09/25 01:50:34;;;;;;;5.77;2.43;;;10.80;99.90;;;;;;5051327;28;20078;-73
2023/09/25 01:53:01;;;;;;;7.50;2.20;;;10.80;99.90;;;;;;5062986;28;20028;-73
2023/09/25 01:55:29;;;;;;;5.07;2.58;;;10.70;99.90;;;;;;5052322;28;20029;-73
2023/09/25 01:57:54;;;;;;;8.95;2.50;;;10.70;99.90;;;;;;5052020;28;20375;-73
2023/09/25 02:00:20;;;;;;;8.93;2.57;;;10.70;99.90;;;;;;5051822;28;20036;-73
2023/09/25 02:02:46;;;;;;;7.33;2.50;;;10.70;99.90;;;;;;5051781;28;20032;-72
2023/09/25 02:05:12;;;;;;;8.40;2.70;;;10.70;99.90;;;;;;5051206;28;20408;-73
2023/09/25 02:07:38;;;;;;;6.07;2.22;;;10.70;99.90;;;;;;5052116;28;20403;-72
2023/09/25 02:10:05;;;;;;;6.30;2.33;;;10.60;99.90;;;;;;5051811;28;20029;-72
2023/09/25 02:12:31;;;;;;;3.67;2.17;;;10.60;99.90;;;;;;5051676;28;20025;-73
2023/09/25 02:14:59;;;;;;;7.20;2.60;;;10.60;99.90;;;;;;5051548;28;20170;-73
2023/09/25 02:17:27;;;;;;;6.75;2.60;;;10.60;99.90;;;;;;5051854;28;20032;-72
2023/09/25 02:19:54;;;;;;;6.93;2.13;;;10.50;99.90;;;;;;5050978;28;20072;-72
2023/09/25 02:22:20;;;;;;;10.50;2.42;;;10.50;99.90;;;;;;5049908;28;20154;-73
2023/09/25 02:24:45;;;;;;;9.77;2.70;;;10.50;99.90;;;;;;5049605;28;20078;-72
2023/09/25 02:27:11;;;;;;;5.63;2.47;;;10.50;99.90;;;;;;5049354;28;20410;-74
2023/09/25 02:29:37;;;;;;;3.67;2.47;;;10.50;99.90;;;;;;5050970;28;20017;-73
2023/09/25 02:32:02;;;;;;;3.87;2.37;;;10.50;99.90;;;;;;5049126;28;20191;-73
2023/09/25 02:34:28;;;;;;;4.53;2.40;;;10.40;99.90;;;;;;5050803;28;20126;-73
2023/09/25 02:36:54;;;;;;;8.47;2.30;;;10.40;99.90;;;;;;5051421;28;20151;-73
2023/09/25 02:39:19;;;;;;;11.57;2.50;;;10.40;99.90;;;;;;5049895;28;20112;-72
2023/09/25 02:41:45;;;;;;;4.57;2.77;;;10.40;99.90;;;;;;5050802;28;20025;-74
2023/09/25 02:44:10;;;;;;;6.07;2.60;;;10.30;99.90;;;;;;5049229;28;20047;-73
2023/09/25 02:46:36;;;;;;;6.47;2.60;;;10.30;99.90;;;;;;5051023;28;20035;-72
2023/09/25 02:49:02;;;;;;;8.43;2.90;;;10.40;99.90;;;;;;5049629;28;20067;-73
2023/09/25 02:51:28;;;;;;;9.30;2.50;;;10.30;99.90;;;;;;5050207;28;20037;-73
2023/09/25 02:53:53;;;;;;;5.10;2.43;;;10.40;99.90;;;;;;5050039;28;20037;-72
2023/09/25 02:56:19;;;;;;;8.18;3.05;;;10.40;99.90;;;;;;5065182;28;20017;-73
2023/09/25 02:58:46;;;;;;;4.20;2.57;;;10.30;99.90;;;;;;5050608;28;20120;-73
2023/09/25 03:01:11;;;;;;;;;;;10.30;99.90;;;;;;5049209;28;20032;-73
2023/09/25 03:03:39;;;;;;;3.83;2.45;;;10.30;99.90;;;;;;5065412;28;19908;-73
2023/09/25 03:06:04;;;;;;;21.20;2.72;;;10.30;99.90;;;;;;5048651;28;20021;-73
2023/09/25 03:08:30;;;;;;;5.80;2.93;;;10.20;99.90;;;;;;5050509;28;20021;-72
2023/09/25 03:10:56;;;;;;;9.67;3.73;;;10.20;99.90;;;;;;5049146;28;20052;-73
2023/09/25 03:13:21;;;;;;;10.00;2.63;;;10.20;99.90;;;;;;5048746;28;20064;-73
2023/09/25 03:15:47;;;;;;;7.63;2.50;;;10.20;99.90;;;;;;5048493;28;20103;-73
2023/09/25 03:18:12;;;;;;;7.03;3.07;;;10.20;99.90;;;;;;5049900;28;20032;-73
2023/09/25 03:20:38;;;;;;;8.87;2.73;;;10.20;99.90;;;;;;5049367;28;20031;-74
2023/09/25 03:23:04;;;;;;;8.27;2.63;;;10.20;99.90;;;;;;5050101;28;20029;-72
2023/09/25 03:25:37;;;;;;;6.95;2.55;;;10.20;99.90;;;;;;5050510;28;20495;-74
2023/09/25 03:28:03;;;;;;;6.88;2.38;;;10.10;99.90;;;;;;5050814;28;20024;-73
2023/09/25 03:30:29;;;;;;;11.25;2.30;;;10.10;99.90;;;;;;5049869;28;20032;-74
2023/09/25 03:32:55;;;;;;;12.10;2.70;;;10.20;99.90;;;;;;5047890;28;20037;-74
2023/09/25 03:35:24;;;;;;;4.37;2.67;;;10.10;99.90;;;;;;5048536;28;20033;-73
2023/09/25 03:37:50;;;;;;;10.43;2.70;;;10.10;99.90;;;;;;5050265;28;20267;-73
2023/09/25 03:40:15;;;;;;;4.88;2.60;;;10.10;99.90;;;;;;5048642;28;20517;-74
2023/09/25 03:42:41;;;;;;;5.67;3.00;;;10.10;99.90;;;;;;5049446;28;20037;-74
2023/09/25 03:45:08;;;;;;;5.18;2.60;;;10.00;99.90;;;;;;5049597;28;20032;-74
2023/09/25 03:47:35;;;;;;;7.15;2.25;;;10.10;99.90;;;;;;5048321;28;20064;-73
2023/09/25 03:50:04;;;;;;;4.47;2.50;;;10.10;99.90;;;;;;5049397;28;20101;-73
2023/09/25 03:52:29;;;;;;;8.98;2.60;;;10.10;99.90;;;;;;5049147;28;20033;-73
2023/09/25 03:54:55;;;;;;;3.10;2.20;;;10.20;99.90;;;;;;5048192;28;20044;-73
2023/09/25 03:57:21;;;;;;;4.80;2.47;;;10.10;99.90;;;;;;5049564;28;20032;-73
2023/09/25 03:59:46;;;;;;;6.13;2.63;;;10.10;99.90;;;;;;5037156;28;20622;-73
2023/09/25 04:02:12;;;;;;;4.68;2.60;;;10.10;99.90;;;;;;5044210;28;20086;-73
2023/09/25 04:04:38;;;;;;;6.32;2.58;;;10.10;99.90;;;;;;5043022;28;20071;-72
2023/09/25 04:07:04;;;;;;;6.63;2.23;;;10.00;99.90;;;;;;5040711;28;20134;-72
2023/09/25 04:09:30;;;;;;;6.70;2.63;;;9.90;99.90;;;;;;5037089;28;20030;-72
2023/09/25 04:11:57;;;;;;;14.20;3.10;;;10.00;99.90;;;;;;5041352;28;20090;-73
2023/09/25 04:14:23;;;;;;;6.45;2.25;;;10.00;99.90;;;;;;5045412;28;20468;-73
2023/09/25 04:16:50;;;;;;;3.17;2.30;;;10.00;99.90;;;;;;5046866;28;20029;-73
2023/09/25 04:19:16;;;;;;;7.05;2.50;;;10.00;99.90;;;;;;5037469;28;20052;-72
2023/09/25 04:21:42;;;;;;;6.60;2.38;;;10.00;99.90;;;;;;5043508;28;20033;-73
2023/09/25 04:24:10;;;;;;;10.55;2.47;;;9.90;99.90;;;;;;5063836;28;20764;-73
2023/09/25 04:26:38;;;;;;;12.35;2.90;;;9.90;99.90;;;;;;5044701;28;20021;-73
2023/09/25 04:29:05;;;;;;;6.40;2.83;;;9.90;99.90;;;;;;5052527;28;20119;-73
2023/09/25 04:31:31;;;;;;;4.88;2.55;;;9.90;99.90;;;;;;5049859;28;20119;-73
2023/09/25 04:33:56;;;;;;;6.37;2.70;;;9.90;99.90;;;;;;5047300;28;20534;-73
2023/09/25 04:36:23;;;;;;;8.43;2.90;;;10.00;99.90;;;;;;5042526;28;20521;-73
2023/09/25 04:38:49;;;;;;;6.90;3.78;;;10.00;99.90;;;;;;5046651;28;20024;-73
2023/09/25 04:41:14;;;;;;;9.17;4.10;;;10.10;99.90;;;;;;5048434;28;20025;-73
2023/09/25 04:43:40;;;;;;;7.37;4.03;;;10.00;99.90;;;;;;5047191;28;20104;-73
2023/09/25 04:46:05;;;;;;;16.40;4.27;;;9.90;99.90;;;;;;5058479;28;20044;-73
2023/09/25 04:48:31;;;;;;;10.90;3.80;;;10.00;99.90;;;;;;5061569;28;20043;-73
2023/09/25 04:50:57;;;;;;;10.37;3.17;;;10.00;99.90;;;;;;5046366;28;20622;-73
2023/09/25 04:53:23;;;;;;;9.57;3.58;;;10.00;99.90;;;;;;5048630;28;20510;-72
2023/09/25 04:55:48;;;;;;;4.13;3.07;;;10.00;99.90;;;;;;5045417;28;20099;-73
2023/09/25 04:58:14;;;;;;;4.13;2.90;;;9.90;99.90;;;;;;5051674;28;20029;-73
2023/09/25 05:00:41;;;;;;;11.30;4.27;;;9.90;99.90;;;;;;5049654;28;20017;-73
2023/09/25 05:03:07;;;;;;;5.57;3.15;;;10.00;99.90;;;;;;5046830;28;20056;-73
2023/09/25 05:05:33;;;;;;;16.27;3.03;;;9.90;99.90;;;;;;5043795;28;20063;-73
2023/09/25 05:07:59;;;;;;;17.00;3.35;;;9.80;99.90;;;;;;5043726;28;20120;-73
2023/09/25 05:10:27;;;;;;;7.65;2.85;;;9.80;99.90;;;;;;5045931;28;20453;-73
2023/09/25 05:12:54;;;;;;;5.50;2.80;;;9.80;99.90;;;;;;5046100;28;20444;-73
2023/09/25 05:15:20;;;;;;;;;;;9.80;99.90;;;;;;5046282;28;20029;-74
2023/09/25 05:17:46;;;;;;;6.30;2.85;;;9.80;99.90;;;;;;5047832;28;19915;-73
2023/09/25 05:20:18;;;;;;;8.50;2.78;;;9.80;99.90;;;;;;5044720;28;20526;-73
2023/09/25 05:22:49;;;;;;;9.85;3.25;;;9.80;99.90;;;;;;5034364;28;20036;-72
2023/09/25 05:25:16;;;;;;;11.57;3.63;;;9.80;99.90;;;;;;5045596;28;20033;-72
2023/09/25 05:27:45;;;;;;;11.57;2.88;;;9.80;99.90;;;;;;5041334;28;20125;-73
2023/09/25 05:30:11;;;;;;;6.80;2.97;;;9.70;99.90;;;;;;5039759;28;20051;-72
2023/09/25 05:32:38;;;;;;;9.75;2.90;;;9.50;99.90;;;;;;5057671;28;20086;-73
2023/09/25 05:35:07;;;;;;;;;;;9.50;99.90;;;;;;5045770;28;20549;-73
2023/09/25 05:37:33;;;;;;;8.30;2.67;;;9.60;99.90;;;;;;5045353;28;19916;-72
2023/09/25 05:39:59;;;;;;;7.38;3.20;;;9.60;99.90;;;;;;5040749;28;20033;-73
2023/09/25 05:42:25;;;;;;;11.02;2.90;;;9.70;99.90;;;;;;5040413;28;20029;-71
2023/09/25 05:44:50;;;;;;;13.03;3.57;;;9.70;99.90;;;;;;5041846;28;20040;-72
2023/09/25 05:47:17;;;;;;;6.23;3.57;;;9.70;99.90;;;;;;5043734;28;20107;-73
2023/09/25 05:49:43;;;;;;;9.48;4.03;;;9.70;99.90;;;;;;5043589;28;20113;-73
2023/09/25 05:52:08;;;;;;;7.80;3.03;;;9.70;99.90;;;;;;5042084;28;20108;-73
2023/09/25 05:54:34;;;;;;;11.50;3.93;;;9.80;99.90;;;;;;5045574;28;20064;-73
2023/09/25 05:57:00;;;;;;;9.02;3.15;;;9.80;99.90;;;;;;5042505;28;20036;-72
2023/09/25 05:59:25;;;;;;;13.27;3.30;;;9.80;99.90;;;;;;5044203;28;20541;-72
2023/09/25 06:01:51;;;;;;;11.23;3.80;;;9.90;99.90;;;;;;5045661;28;20045;-73
2023/09/25 06:04:17;;;;;;;13.07;3.67;;;10.00;99.90;;;;;;5047589;28;20560;-73
2023/09/25 06:06:43;;;;;;;12.27;3.53;;;10.00;99.90;;;;;;5048935;28;20528;-71
2023/09/25 06:09:15;;;;;;;12.98;3.53;;;10.00;99.90;;;;;;5044258;28;20398;-73
2023/09/25 06:11:41;;;;;;;5.53;3.42;;;10.00;99.90;;;;;;5047116;28;20060;-74
2023/09/25 06:14:07;;;;;;;12.65;3.58;;;10.10;99.90;;;;;;5040646;28;20573;-73
2023/09/25 06:16:32;;;;;;;17.77;4.97;;;10.10;99.90;;;;;;5041184;28;20437;-74
2023/09/25 06:18:58;;;;;;;12.05;3.63;;;10.20;99.90;;;;;;5043622;28;20040;-73
2023/09/25 06:21:24;;;;;;;12.03;3.93;;;10.10;99.90;;;;;;5045535;28;20483;-73
2023/09/25 06:23:50;;;;;;;19.20;4.28;;;10.30;99.90;;;;;;5044619;28;20032;-73
2023/09/25 06:26:15;;;;;;;14.77;3.77;;;10.30;99.90;;;;;;5044124;28;20495;-71
2023/09/25 06:28:42;;;;;;;6.87;3.43;;;10.30;99.90;;;;;;5046423;28;20499;-73
2023/09/25 06:31:08;;;;;;;19.50;3.75;;;10.40;99.90;;;;;;5049262;28;20069;-73
2023/09/25 06:33:34;;;;;;;6.72;3.80;;;10.40;99.90;;;;;;5035358;28;20450;-73
2023/09/25 06:36:00;;;;;;;5.93;3.60;;;10.50;99.90;;;;;;5048942;28;20025;-71
2023/09/25 06:38:26;;;;;;;14.48;3.92;;;10.50;99.90;;;;;;5043273;28;20029;-70
2023/09/25 06:40:51;;;;;;;12.53;4.67;;;10.50;99.90;;;;;;5041328;28;20037;-70
2023/09/25 06:43:17;;;;;;;12.17;4.23;;;10.60;99.90;;;;;;5042234;28;20025;-72
2023/09/25 06:45:43;;;;;;;12.02;3.95;;;10.60;99.90;;;;;;5047178;28;20017;-70
2023/09/25 06:48:08;;;;;;;16.73;3.67;;;10.70;99.90;;;;;;5039734;28;20521;-70
2023/09/25 06:50:35;;;;;;;17.40;4.40;;;10.80;99.90;;;;;;5047083;28;20064;-70
2023/09/25 06:53:01;;;;;;;;;;;10.80;99.90;;;;;;5048669;28;20096;-71
2023/09/25 06:55:26;;;;;;;9.93;2.92;;;10.80;99.90;;;;;;5054931;28;20015;-74
2023/09/25 06:57:52;;;;;;;15.73;3.40;;;10.90;99.90;;;;;;5045345;28;20033;-73
2023/09/25 07:00:18;;;;;;;9.53;3.53;;;11.00;99.90;;;;;;5045211;28;20026;-74
2023/09/25 07:02:44;;;;;;;10.20;3.42;;;11.60;99.90;;;;;;5046383;28;20040;-74
2023/09/25 07:05:11;;;;;;;13.95;3.17;;;11.90;99.90;;;;;;5043740;28;20033;-74
2023/09/25 07:07:37;;;;;;;7.95;3.17;;;12.10;99.90;;;;;;5048338;28;20036;-75
2023/09/25 07:10:06;;;;;;;10.15;3.63;;;12.10;99.90;;;;;;5044500;28;20040;-73
2023/09/25 07:12:33;;;;;;;8.63;3.40;;;11.90;99.90;;;;;;5047054;28;20025;-73
2023/09/25 07:15:01;;;;;;;6.32;3.83;;;11.70;99.90;;;;;;5042467;28;20037;-73
2023/09/25 07:17:28;;;;;;;8.63;3.60;;;11.80;99.90;;;;;;5037158;28;20033;-73
2023/09/25 07:19:57;;;;;;;15.45;3.97;;;12.10;99.90;;;;;;5044212;28;20137;-73
2023/09/25 07:22:24;;;;;;;8.30;3.70;;;13.20;99.90;;;;;;5044222;28;20037;-71
2023/09/25 07:24:50;;;;;;;14.20;4.72;;;12.50;99.90;;;;;;5058331;28;20021;-72
2023/09/25 07:27:16;;;;;;;11.93;3.17;;;12.20;99.90;;;;;;5037835;28;20023;-72
2023/09/25 07:29:43;;;;;;;7.95;3.78;;;12.20;99.90;;;;;;5040033;28;20036;-72
2023/09/25 07:32:09;;;;;;;18.95;3.40;;;12.10;99.90;;;;;;5043381;28;20123;-72
2023/09/25 07:34:35;;;;;;;6.20;3.72;;;12.30;99.90;;;;;;5058012;28;20502;-71
2023/09/25 07:37:04;;;;;;;10.17;4.10;;;12.50;99.90;;;;;;5039359;28;20043;-72
2023/09/25 07:39:30;;;;;;;9.35;4.07;;;12.40;99.90;;;;;;5037282;28;20026;-71
2023/09/25 07:41:56;;;;;;;8.35;3.63;;;12.40;99.90;;;;;;5062844;28;20075;-70
2023/09/25 07:44:26;;;;;;;967.88;61.65;;;;;;;;;;5047624;28;20569;-73
2023/09/25 07:46:53;;;;;;;15.13;3.95;;;12.60;99.90;;;;;;5056378;28;20059;-74
2023/09/25 07:49:19;;;;;;;13.07;4.40;;;12.80;99.90;;;;;;5040461;28;20025;-73
2023/09/25 07:51:46;;;;;;;13.77;4.15;;;12.80;99.90;;;;;;5041378;28;20447;-74
2023/09/25 07:54:12;;;;;;;8.05;3.92;;;13.00;99.90;;;;;;5037887;28;20171;-74
2023/09/25 07:56:38;;;;;;;10.70;4.23;;;13.30;99.90;;;;;;5034452;28;20112;-74
2023/09/25 07:59:04;;;;;;;13.53;3.60;;;13.30;99.90;;;;;;5045173;28;20131;-74
2023/09/25 08:01:30;;;;;;;7.13;3.97;;;13.40;99.90;;;;;;5038412;28;20025;-74
2023/09/25 08:03:56;;;;;;;8.63;3.88;;;13.80;99.90;;;;;;5040223;28;20126;-74
2023/09/25 08:06:24;;;;;;;8.05;3.08;;;14.00;99.90;;;;;;5042993;28;20041;-74
2023/09/25 08:08:51;;;;;;;6.43;2.78;;;14.10;99.90;;;;;;5047681;28;20380;-74
2023/09/25 08:11:17;;;;;;;8.52;3.75;;;14.00;99.90;;;;;;5044516;28;20025;-74
2023/09/25 08:13:43;;;;;;;6.60;3.38;;;13.90;99.90;;;;;;5048431;28;20037;-74
2023/09/25 08:16:09;;;;;;;5.57;3.10;;;14.20;99.90;;;;;;5046777;28;20112;-74
2023/09/25 08:18:35;;;;;;;10.23;3.53;;;15.20;99.90;;;;;;5042503;28;20381;-74
2023/09/25 08:21:01;;;;;;;4.57;3.22;;;16.20;99.90;;;;;;5049891;28;20478;-74
2023/09/25 08:23:28;;;;;;;6.43;3.17;;;17.50;99.90;;;;;;5042177;28;20103;-73
2023/09/25 08:25:54;;;;;;;4.07;2.78;;;17.90;99.90;;;;;;5049007;28;20029;-73
2023/09/25 08:28:19;;;;;;;4.60;2.77;;;18.50;97.30;;;;;;5042798;28;20044;-73
2023/09/25 08:30:45;;;;;;;12.97;4.10;;;18.80;96.00;;;;;;5046625;28;20503;-73
2023/09/25 08:33:12;;;;;;;2.83;2.53;;;19.20;95.40;;;;;;5040080;28;20041;-73
2023/09/25 08:35:37;;;;;;;4.53;2.15;;;19.50;94.80;;;;;;5044672;28;20033;-73
2023/09/25 08:38:03;;;;;;;5.88;3.10;;;19.90;93.40;;;;;;5042490;28;20032;-73
2023/09/25 08:40:31;;;;;;;5.60;2.95;;;20.30;91.60;;;;;;5037813;28;20029;-73
2023/09/25 08:42:57;;;;;;;5.75;2.70;;;20.10;91.60;;;;;;5051066;28;20040;-72
2023/09/25 08:45:23;;;;;;;8.93;3.05;;;20.40;92.00;;;;;;5048893;28;20045;-74
2023/09/25 08:47:49;;;;;;;4.45;2.78;;;20.90;92.20;;;;;;5049055;28;20080;-73
2023/09/25 08:50:15;;;;;;;4.65;2.35;;;21.40;91.50;;;;;;5049713;28;20029;-79
2023/09/25 08:52:41;;;;;;;4.85;2.40;;;21.50;91.10;;;;;;5041800;28;20087;-75
2023/09/25 08:55:08;;;;;;;4.78;2.33;;;21.70;90.80;;;;;;5042734;28;20387;-75
2023/09/25 08:57:37;;;;;;;5.57;2.40;;;21.80;87.80;;;;;;5047077;28;20036;-74
2023/09/25 09:00:14;;;;;;;8.18;2.28;;;22.00;89.70;;;;;;5052584;28;20035;-75
2023/09/25 09:02:41;;;;;;;3.92;2.35;;;22.30;88.70;;;;;;5043522;28;20053;-75
2023/09/25 09:05:16;;;;;;;6.15;2.40;;;22.40;85.70;;;;;;5046202;28;20025;-76
2023/09/25 09:08:01;;;;;;;2.80;2.28;;;22.50;85.40;;;;;;5043980;28;20115;-76
2023/09/25 09:10:31;;;;;;;5.05;2.15;;;22.20;81.20;;;;;;5035262;28;20572;-76
2023/09/25 09:12:58;;;;;;;4.18;2.95;;;22.10;84.10;;;;;;5042528;28;20040;-74
2023/09/25 09:15:29;;;;;;;7.18;2.72;;;22.30;83.50;;;;;;5042545;28;20124;-75
2023/09/25 09:17:56;;;;;;;4.43;2.60;;;23.00;79.40;;;;;;5043026;28;20036;-73
2023/09/25 09:20:33;;;;;;;5.05;2.28;;;23.20;79.20;;;;;;5043796;28;20116;-74
2023/09/25 09:22:59;;;;;;;5.40;2.20;;;23.10;79.90;;;;;;5046142;28;20033;-74
2023/09/25 09:25:25;;;;;;;4.20;2.45;;;23.10;77.30;;;;;;5047165;28;20695;-75
2023/09/25 09:27:50;;;;;;;;;;;23.30;79.70;;;;;;5051006;28;20525;-74
2023/09/25 09:30:21;;;;;;;4.63;2.50;;;23.50;77.80;;;;;;5048275;28;19944;-74
2023/09/25 09:32:50;;;;;;;4.65;2.40;;;23.20;74.10;;;;;;5042694;28;20111;-76
2023/09/25 09:35:23;;;;;;;4.05;2.05;;;23.50;76.40;;;;;;5037522;28;20403;-75
2023/09/25 09:37:54;;;;;;;3.65;2.17;;;23.30;75.10;;;;;;5037465;28;20033;-74
2023/09/25 09:40:21;;;;;;;2.85;1.75;;;23.10;72.60;;;;;;5045786;28;20033;-74
2023/09/25 09:42:49;;;;;;;6.72;1.70;;;23.30;74.60;;;;;;5044438;28;20040;-75
2023/09/25 09:45:15;;;;;;;2.20;1.48;;;23.00;78.80;;;;;;5045814;28;20029;-74
2023/09/25 09:47:43;;;;;;;5.15;1.45;;;22.20;76.90;;;;;;5042094;28;20040;-74
2023/09/25 09:50:10;;;;;;;2.25;1.60;;;21.90;80.60;;;;;;5043012;28;20037;-75
2023/09/25 09:52:38;;;;;;;3.08;1.60;;;21.40;80.10;;;;;;5041764;28;20025;-74
2023/09/25 09:55:08;;;;;;;10.85;1.70;;;21.30;79.50;;;;;;5036457;28;20132;-75
2023/09/25 09:57:35;;;;;;;5.78;1.55;;;21.20;79.90;;;;;;5038620;28;20437;-74
2023/09/25 10:00:00;;;;;;;3.08;1.45;;;21.10;81.50;;;;;;5044264;28;20457;-75
2023/09/25 10:02:30;;;;;;;7.25;1.83;;;20.80;79.60;;;;;;5041707;28;20124;-74
2023/09/25 10:04:57;;;;;;;2.58;1.90;;;20.60;82.60;;;;;;5044836;28;20033;-74
2023/09/25 10:07:22;;;;;;;3.40;1.63;;;20.50;84.50;;;;;;5041997;28;20067;-74
2023/09/25 10:09:58;;;;;;;3.63;1.80;;;20.50;83.40;;;;;;5039888;28;20060;-75
2023/09/25 10:12:48;;;;;;;2.95;1.63;;;20.50;83.70;;;;;;5054884;28;20391;-74
2023/09/25 10:15:24;;;;;;;3.90;1.52;;;20.30;83.20;;;;;;5045697;28;20098;-74
2023/09/25 10:17:49;;;;;;;5.07;1.90;;;20.20;84.20;;;;;;5038309;28;20032;-74
2023/09/25 10:20:30;;;;;;;2.30;1.52;;;20.20;83.10;;;;;;5040473;28;20727;-74
2023/09/25 10:23:22;;;;;;;4.20;1.65;;;20.10;84.90;;;;;;5048828;28;20033;-74
2023/09/25 10:25:54;;;;;;;4.80;1.88;;;19.90;85.50;;;;;;5032796;28;20045;-74
2023/09/25 10:28:23;;;;;;;6.00;1.88;;;19.90;85.30;;;;;;5043769;28;20037;-74
2023/09/25 10:30:52;;;;;;;5.72;1.60;;;;;;;;;;5042144;28;20652;-74
2023/09/25 10:33:20;;;;;;;6.20;1.83;;;19.80;85.00;;;;;;5041481;28;20048;-74
2023/09/25 10:35:49;;;;;;;8.02;1.77;;;19.80;85.20;;;;;;5043804;28;20028;-74
2023/09/25 10:38:21;;;;;;;2.60;1.77;;;19.80;85.50;;;;;;5043239;28;20537;-74
2023/09/25 10:40:52;;;;;;;3.58;2.05;;;19.70;87.20;;;;;;5043981;28;20075;-74
2023/09/25 10:43:20;;;;;;;3.13;1.92;;;19.60;87.60;;;;;;5037291;28;20072;-74
2023/09/25 10:45:47;;;;;;;3.40;2.20;;;19.60;87.70;;;;;;5038314;28;20483;-74
2023/09/25 10:48:13;;;;;;;9.27;2.78;;;19.60;87.70;;;;;;5041099;28;20024;-74
2023/09/25 10:50:40;;;;;;;4.60;1.80;;;19.70;86.20;;;;;;5039790;28;20025;-72
2023/09/25 10:53:07;;;;;;;3.13;1.40;;;19.70;85.70;;;;;;5039755;28;20562;-73
2023/09/25 10:55:36;;;;;;;4.75;2.30;;;19.70;86.80;;;;;;5041898;28;20143;-73
2023/09/25 10:58:03;;;;;;;3.05;1.85;;;19.70;86.50;;;;;;5047242;28;20030;-74
2023/09/25 11:00:29;;;;;;;6.80;2.42;;;19.80;87.90;;;;;;5046052;28;20021;-73
2023/09/25 11:02:55;;;;;;;3.88;1.85;;;19.80;86.00;;;;;;5040219;28;20025;-73
2023/09/25 11:05:22;;;;;;;3.13;1.98;;;19.80;85.30;;;;;;5040457;28;20128;-74
2023/09/25 11:07:47;;;;;;;;;;;19.80;86.60;;;;;;5040036;28;20111;-73
2023/09/25 11:10:14;;;;;;;4.13;1.60;;;19.80;86.40;;;;;;5039789;28;19912;-73
2023/09/25 11:12:41;;;;;;;3.60;1.52;;;19.70;84.90;;;;;;5040057;28;20066;-74
2023/09/25 11:15:11;;;;;;;;;;;19.70;84.50;;;;;;5056023;28;20511;-74
2023/09/25 11:17:40;;;;;;;3.55;1.77;;;19.70;84.70;;;;;;5038553;28;19913;-74
2023/09/25 11:20:11;;;;;;;6.57;2.08;;;19.70;85.70;;;;;;5036780;28;20033;-69
2023/09/25 11:22:41;;;;;;;7.00;2.33;;;19.80;85.60;;;;;;5040823;28;20021;-74
2023/09/25 11:25:15;;;;;;;4.20;1.70;;;19.90;83.00;;;;;;5041609;28;20033;-74
2023/09/25 11:27:51;;;;;;;5.00;2.20;;;19.90;83.50;;;;;;5034714;28;20448;-73
2023/09/25 11:30:16;;;;;;;5.80;2.08;;;19.80;82.60;;;;;;5036475;28;20033;-74
2023/09/25 11:32:42;;;;;;;3.13;1.70;;;19.80;82.90;;;;;;5045170;28;20498;-74
2023/09/25 11:35:13;;;;;;;3.30;1.63;;;19.90;83.10;;;;;;5047576;28;20033;-73
2023/09/25 11:38:00;;;;;;;6.28;2.17;;;20.00;84.10;;;;;;5040818;28;20488;-74
2023/09/25 11:40:27;;;;;;;4.18;1.73;;;20.10;83.00;;;;;;5043047;28;20025;-74
2023/09/25 11:42:54;;;;;;;3.30;2.17;;;20.10;82.30;;;;;;5042261;28;20514;-74
2023/09/25 11:45:19;;;;;;;;;;;20.20;81.10;;;;;;5044220;28;20025;-74
2023/09/25 11:47:46;;;;;;;3.80;1.95;;;20.20;80.80;;;;;;5036501;28;19909;-73
2023/09/25 11:50:13;;;;;;;3.28;1.65;;;20.30;80.70;;;;;;5043521;28;20036;-73
2023/09/25 11:52:41;;;;;;;4.15;1.52;;;20.30;83.40;;;;;;5038561;28;20037;-73
2023/09/25 11:55:11;;;;;;;6.30;1.80;;;20.40;81.90;;;;;;5041652;28;20092;-74
2023/09/25 11:57:38;;;;;;;3.08;1.63;;;20.40;78.50;;;;;;5045063;28;20151;-73
2023/09/25 12:00:05;;;;;;;2.83;1.70;;;20.40;85.30;;;;;;5043789;28;20069;-73
2023/09/25 12:02:32;;;;;;;2.92;1.83;;;20.40;82.30;;;;;;5035313;28;20061;-74
2023/09/25 12:04:58;;;;;;;4.38;1.70;;;20.60;81.90;;;;;;5042687;28;20040;-74
2023/09/25 12:07:26;;;;;;;3.42;1.90;;;20.70;76.30;;;;;;5041433;28;20025;-73
2023/09/25 12:09:52;;;;;;;2.90;1.70;;;20.70;74.80;;;;;;5033735;28;20028;-74
2023/09/25 12:12:18;;;;;;;7.18;1.75;;;20.60;79.30;;;;;;5041591;28;20487;-73
2023/09/25 12:14:43;;;;;;;5.70;1.93;;;20.60;80.50;;;;;;5054154;28;20049;-73
2023/09/25 12:17:10;;;;;;;3.60;1.30;;;20.70;77.60;;;;;;5034928;28;20026;-73
2023/09/25 12:19:36;;;;;;;4.13;1.77;;;20.80;77.60;;;;;;5044478;28;20028;-73
2023/09/25 12:22:02;;;;;;;4.00;1.73;;;21.00;75.20;;;;;;5041578;28;20108;-73
2023/09/25 12:24:28;;;;;;;2.50;1.58;;;;;;;;;;5046669;28;20021;-74
2023/09/25 12:26:54;;;;;;;3.08;1.65;;;;;;;;;;5055751;28;20406;-74
2023/09/25 12:29:20;;;;;;;4.07;1.98;;;;;;;;;;5041310;28;20032;-75
2023/09/25 12:31:47;;;;;;;2.83;1.60;;;;;;;;;;5040961;28;20041;-76
2023/09/25 12:34:13;;;;;;;;;;;;;;;;;;5037024;28;20025;-75
2023/09/25 12:36:38;;;;;;;2.85;1.70;;;20.90;76.70;;;;;;5037453;28;20375;-74
2023/09/25 12:39:06;;;;;;;3.10;1.77;;;21.00;72.70;;;;;;5043013;28;20021;-75
2023/09/25 12:41:32;;;;;;;2.75;1.77;;;21.10;76.20;;;;;;5036631;28;20677;-75
2023/09/25 12:43:57;;;;;;;5.22;1.88;;;21.20;75.00;;;;;;5055179;28;20038;-75
2023/09/25 12:46:23;;;;;;;5.70;1.87;;;21.40;75.60;;;;;;5037622;28;20477;-76
2023/09/25 12:48:49;;;;;;;4.63;1.90;;;21.40;76.30;;;;;;5055294;28;20363;-75